createdAt,value
2019-03-27T00:01:57.418Z,10.40
2019-03-27T00:04:24.240Z,10.40
2019-03-27T00:06:51.066Z,10.40
2019-03-27T00:09:17.709Z,10.40
2019-03-27T00:11:44.312Z,10.10
2019-03-27T00:14:10.987Z,10.00
2019-03-27T00:16:37.621Z,10.00
2019-03-27T00:19:04.126Z,9.80
2019-03-27T00:21:30.810Z,9.80
2019-03-27T00:23:57.823Z,9.60
2019-03-27T00:26:24.483Z,9.50
2019-03-27T00:28:51.323Z,9.50
2019-03-27T00:31:18.061Z,9.40
2019-03-27T00:33:44.467Z,9.50
2019-03-27T00:36:11.116Z,9.50
2019-03-27T00:38:38.063Z,9.70
2019-03-27T00:41:04.806Z,9.50
2019-03-27T00:43:31.474Z,9.50
2019-03-27T00:45:57.999Z,9.50
2019-03-27T00:48:24.505Z,9.30
2019-03-27T00:50:51.452Z,9.50
2019-03-27T00:53:18.197Z,9.50
2019-03-27T00:55:44.801Z,9.50
2019-03-27T00:58:11.355Z,9.30
2019-03-27T01:00:44.657Z,9.20
2019-03-27T01:03:11.266Z,8.40
2019-03-27T01:05:37.810Z,9.20
2019-03-27T01:08:04.651Z,9.20
2019-03-27T01:10:31.283Z,9.20
2019-03-27T01:12:57.929Z,9.20
2019-03-27T01:15:24.546Z,9.10
2019-03-27T01:17:51.167Z,9.20
2019-03-27T01:20:17.685Z,9.20
2019-03-27T01:22:44.197Z,9.20
2019-03-27T01:25:12.454Z,9.20
2019-03-27T01:27:39.129Z,9.30
2019-03-27T01:30:05.741Z,9.20
2019-03-27T01:32:50.757Z,9.10
2019-03-27T01:35:17.272Z,8.90
2019-03-27T01:37:43.808Z,8.90
2019-03-27T01:40:10.255Z,8.90
2019-03-27T01:42:36.882Z,8.80
2019-03-27T01:45:05.879Z,8.80
2019-03-27T01:47:32.429Z,8.60
2019-03-27T01:49:59.050Z,8.30
2019-03-27T01:52:25.665Z,8.40
2019-03-27T01:54:52.296Z,8.30
2019-03-27T01:57:18.997Z,8.20
2019-03-27T01:59:45.634Z,8.20
2019-03-27T02:02:12.535Z,8.20
2019-03-27T02:04:39.181Z,8.30
2019-03-27T02:07:05.695Z,8.30
2019-03-27T02:09:32.344Z,8.20
2019-03-27T02:11:59.335Z,8.10
2019-03-27T02:14:26.058Z,8.00
2019-03-27T02:16:52.630Z,7.90
2019-03-27T02:19:19.469Z,7.90
2019-03-27T02:21:46.142Z,7.90
2019-03-27T02:24:12.807Z,7.90
2019-03-27T02:26:39.491Z,8.00
2019-03-27T02:29:05.927Z,7.90
2019-03-27T02:31:32.583Z,7.70
2019-03-27T02:33:59.326Z,7.60
2019-03-27T02:36:25.826Z,6.90
2019-03-27T02:38:52.496Z,7.40
2019-03-27T02:41:18.943Z,7.40
2019-03-27T02:43:45.575Z,7.20
2019-03-27T02:46:24.408Z,7.00
2019-03-27T02:48:40.731Z,6.90
2019-03-27T02:51:07.355Z,6.80
2019-03-27T02:53:34.059Z,6.70
2019-03-27T02:56:00.574Z,6.70
2019-03-27T02:58:27.185Z,6.60
2019-03-27T03:00:53.704Z,6.60
2019-03-27T03:03:20.216Z,6.70
2019-03-27T03:05:46.787Z,6.50
2019-03-27T03:08:13.396Z,6.70
2019-03-27T03:10:40.101Z,6.60
2019-03-27T03:13:06.725Z,6.80
2019-03-27T03:15:33.447Z,6.80
2019-03-27T03:18:00.084Z,6.80
2019-03-27T03:20:26.701Z,7.00
2019-03-27T03:22:53.352Z,7.10
2019-03-27T03:25:20.076Z,7.20
2019-03-27T03:27:47.037Z,7.10
2019-03-27T03:30:13.702Z,7.00
2019-03-27T03:32:40.332Z,7.00
2019-03-27T03:35:07.166Z,6.90
2019-03-27T03:37:33.832Z,6.90
2019-03-27T03:40:00.938Z,6.90
2019-03-27T03:42:27.555Z,6.90
2019-03-27T03:44:54.213Z,6.80
2019-03-27T03:47:20.827Z,6.50
2019-03-27T03:49:47.338Z,6.50
2019-03-27T03:52:13.999Z,6.50
2019-03-27T03:54:40.728Z,6.20
2019-03-27T03:57:07.344Z,5.20
2019-03-27T03:59:34.030Z,6.00
2019-03-27T04:02:02.147Z,5.90
2019-03-27T04:04:28.758Z,5.80
2019-03-27T04:06:55.412Z,5.80
2019-03-27T04:09:22.038Z,5.90
2019-03-27T04:11:48.545Z,5.80
2019-03-27T04:14:15.101Z,5.90
2019-03-27T04:16:41.507Z,6.00
2019-03-27T04:19:08.353Z,5.90
2019-03-27T04:21:34.910Z,5.90
2019-03-27T04:24:01.543Z,5.80
2019-03-27T04:26:28.299Z,5.90
2019-03-27T04:28:55.003Z,5.90
2019-03-27T04:31:21.555Z,5.60
2019-03-27T04:33:48.071Z,5.60
2019-03-27T04:36:14.734Z,5.70
2019-03-27T04:38:41.342Z,5.70
2019-03-27T04:41:07.867Z,5.80
2019-03-27T04:43:34.426Z,6.00
2019-03-27T04:46:01.128Z,6.20
2019-03-27T04:48:29.577Z,6.20
2019-03-27T04:50:56.534Z,6.30
2019-03-27T04:53:23.114Z,6.30
2019-03-27T04:55:49.696Z,6.50
2019-03-27T04:58:16.289Z,6.30
2019-03-27T05:00:42.923Z,6.00
2019-03-27T05:03:09.543Z,6.00
2019-03-27T05:05:36.389Z,5.90
2019-03-27T05:08:03.010Z,5.80
2019-03-27T05:10:29.685Z,5.80
2019-03-27T05:12:56.326Z,5.70
2019-03-27T05:15:23.005Z,5.50
2019-03-27T05:17:49.634Z,5.60
2019-03-27T05:20:16.307Z,5.60
2019-03-27T05:22:42.931Z,5.50
2019-03-27T05:25:09.552Z,5.40
2019-03-27T05:27:36.610Z,5.50
2019-03-27T05:30:05.146Z,5.40
2019-03-27T05:32:31.536Z,5.50
2019-03-27T05:34:58.100Z,5.40
2019-03-27T05:37:24.723Z,5.40
2019-03-27T05:39:51.344Z,5.50
2019-03-27T05:42:17.871Z,5.50
2019-03-27T05:44:44.378Z,5.50
2019-03-27T05:47:10.889Z,5.60
2019-03-27T05:49:37.608Z,6.00
2019-03-27T05:52:04.177Z,5.80
2019-03-27T05:54:31.327Z,5.80
2019-03-27T05:56:58.159Z,5.70
2019-03-27T05:59:24.567Z,5.10
2019-03-27T06:01:51.181Z,4.80
2019-03-27T06:04:17.813Z,4.90
2019-03-27T06:06:44.321Z,4.90
2019-03-27T06:09:10.878Z,5.20
2019-03-27T06:11:37.550Z,5.10
2019-03-27T06:14:04.063Z,5.10
2019-03-27T06:16:30.960Z,4.90
2019-03-27T06:18:57.566Z,4.90
2019-03-27T06:21:24.186Z,4.80
2019-03-27T06:23:50.725Z,5.00
2019-03-27T06:26:17.371Z,5.00
2019-03-27T06:28:43.974Z,5.10
2019-03-27T06:31:11.236Z,5.20
2019-03-27T06:33:37.998Z,5.10
2019-03-27T06:36:04.610Z,5.30
2019-03-27T06:38:31.251Z,5.20
2019-03-27T06:40:57.801Z,5.10
2019-03-27T06:43:24.304Z,5.20
2019-03-27T06:45:50.935Z,5.30
2019-03-27T06:48:26.073Z,5.30
2019-03-27T06:50:46.107Z,5.20
2019-03-27T06:53:12.653Z,5.20
2019-03-27T06:55:39.216Z,5.30
2019-03-27T06:58:05.843Z,5.40
2019-03-27T07:00:34.754Z,5.40
2019-03-27T07:03:01.449Z,5.50
2019-03-27T07:05:28.073Z,5.50
2019-03-27T07:07:54.694Z,5.60
2019-03-27T07:10:21.349Z,5.70
2019-03-27T07:12:47.852Z,5.60
2019-03-27T07:15:14.453Z,5.70
2019-03-27T07:17:41.179Z,5.80
2019-03-27T07:20:07.795Z,6.00
2019-03-27T07:22:34.510Z,6.00
2019-03-27T07:25:01.356Z,6.10
2019-03-27T07:27:27.987Z,6.20
2019-03-27T07:29:54.611Z,6.20
2019-03-27T07:32:21.424Z,6.20
2019-03-27T07:34:47.882Z,6.40
2019-03-27T07:37:14.399Z,6.40
2019-03-27T07:39:40.925Z,6.20
2019-03-27T07:42:09.884Z,6.10
2019-03-27T07:44:36.431Z,6.40
2019-03-27T07:47:03.045Z,6.30
2019-03-27T07:49:29.748Z,6.40
2019-03-27T07:51:56.306Z,6.30
2019-03-27T07:54:22.974Z,6.40
2019-03-27T07:56:49.599Z,6.30
2019-03-27T07:59:16.132Z,6.40
2019-03-27T08:01:42.774Z,6.50
2019-03-27T08:04:09.189Z,6.60
2019-03-27T08:06:35.802Z,5.70
2019-03-27T08:09:03.655Z,6.70
2019-03-27T08:11:30.316Z,6.80
2019-03-27T08:13:57.295Z,6.90
2019-03-27T08:16:23.854Z,7.00
2019-03-27T08:18:50.366Z,7.10
2019-03-27T08:21:17.024Z,7.20
2019-03-27T08:23:43.691Z,7.20
2019-03-27T08:26:10.327Z,6.40
2019-03-27T08:28:36.953Z,7.30
2019-03-27T08:31:03.610Z,7.30
2019-03-27T08:33:30.650Z,7.30
2019-03-27T08:35:57.152Z,7.30
2019-03-27T08:38:24.118Z,7.40
2019-03-27T08:40:50.755Z,7.00
2019-03-27T08:43:21.461Z,7.50
2019-03-27T08:45:45.763Z,7.70
2019-03-27T08:48:12.412Z,7.70
2019-03-27T08:50:39.050Z,6.90
2019-03-27T08:53:05.619Z,7.80
2019-03-27T08:55:32.321Z,8.00
2019-03-27T08:57:58.841Z,8.00
2019-03-27T09:00:51.152Z,8.20
2019-03-27T09:03:17.782Z,8.30
2019-03-27T09:05:44.286Z,8.20
2019-03-27T09:08:11.362Z,8.20
2019-03-27T09:10:37.947Z,7.50
2019-03-27T09:13:04.452Z,8.50
2019-03-27T09:15:31.116Z,8.50
2019-03-27T09:17:57.755Z,8.60
2019-03-27T09:20:24.379Z,8.70
2019-03-27T09:22:51.034Z,8.90
2019-03-27T09:25:17.573Z,9.00
2019-03-27T09:27:44.079Z,9.00
2019-03-27T09:30:11.404Z,9.00
2019-03-27T09:32:38.026Z,9.20
2019-03-27T09:35:04.690Z,9.30
2019-03-27T09:37:31.632Z,9.20
2019-03-27T09:39:58.296Z,9.30
2019-03-27T09:42:24.966Z,9.10
2019-03-27T09:44:51.710Z,9.40
2019-03-27T09:47:18.243Z,9.50
2019-03-27T09:49:49.963Z,9.60
2019-03-27T09:52:13.098Z,9.60
2019-03-27T09:54:39.725Z,9.70
2019-03-27T09:57:06.341Z,9.90
2019-03-27T09:59:33.035Z,10.00
2019-03-27T10:01:59.650Z,10.00
2019-03-27T10:04:26.272Z,10.00
2019-03-27T10:06:52.946Z,10.00
2019-03-27T10:09:19.870Z,10.20
2019-03-27T10:11:46.383Z,10.10
2019-03-27T10:14:13.119Z,10.10
2019-03-27T10:16:39.738Z,10.30
2019-03-27T10:19:06.353Z,10.40
2019-03-27T10:21:33.039Z,10.40
2019-03-27T10:23:59.655Z,10.50
2019-03-27T10:26:26.187Z,10.60
2019-03-27T10:28:53.127Z,10.70
2019-03-27T10:31:19.679Z,10.80
2019-03-27T10:33:46.271Z,10.70
2019-03-27T10:36:13.023Z,10.90
2019-03-27T10:38:41.736Z,10.90
2019-03-27T10:41:07.985Z,11.20
2019-03-27T10:43:34.643Z,11.00
2019-03-27T10:46:01.265Z,11.20
2019-03-27T10:48:27.842Z,11.10
2019-03-27T10:50:54.991Z,11.10
2019-03-27T10:53:21.404Z,11.00
2019-03-27T10:55:47.939Z,11.10
2019-03-27T10:58:14.584Z,10.90
2019-03-27T11:00:41.105Z,10.90
2019-03-27T11:03:07.631Z,11.00
2019-03-27T11:05:34.481Z,11.10
2019-03-27T11:08:01.104Z,11.10
2019-03-27T11:10:27.781Z,11.20
2019-03-27T11:12:54.478Z,11.30
2019-03-27T11:15:20.998Z,11.50
2019-03-27T11:17:47.399Z,11.70
2019-03-27T11:20:15.537Z,11.80
2019-03-27T11:22:42.051Z,12.00
2019-03-27T11:25:08.971Z,12.00
2019-03-27T11:27:35.590Z,12.20
2019-03-27T11:30:04.798Z,12.10
2019-03-27T11:32:31.311Z,12.30
2019-03-27T11:34:58.052Z,12.50
2019-03-27T11:37:24.701Z,12.00
2019-03-27T11:39:51.214Z,12.70
2019-03-27T11:42:17.760Z,12.80
2019-03-27T11:44:44.404Z,13.00
2019-03-27T11:47:11.022Z,13.10
2019-03-27T11:49:37.615Z,13.20
2019-03-27T11:52:04.241Z,13.40
2019-03-27T11:54:30.752Z,13.50
2019-03-27T11:56:57.387Z,13.60
2019-03-27T11:59:24.022Z,13.70
2019-03-27T12:01:50.539Z,13.70
2019-03-27T12:04:17.497Z,13.80
2019-03-27T12:06:44.107Z,13.90
2019-03-27T12:09:10.742Z,14.10
2019-03-27T12:11:37.733Z,14.10
2019-03-27T12:14:04.456Z,14.20
2019-03-27T12:16:31.317Z,14.50
2019-03-27T12:18:58.015Z,14.60
2019-03-27T12:21:24.640Z,14.80
2019-03-27T12:23:51.254Z,14.90
2019-03-27T12:26:17.812Z,15.10
2019-03-27T12:28:44.458Z,15.40
2019-03-27T12:31:11.063Z,15.30
2019-03-27T12:33:37.813Z,14.70
2019-03-27T12:36:04.443Z,15.40
2019-03-27T12:38:32.293Z,15.30
2019-03-27T12:40:58.946Z,15.70
2019-03-27T12:43:25.576Z,15.90
2019-03-27T12:45:52.233Z,16.10
2019-03-27T12:48:18.895Z,16.20
2019-03-27T12:50:45.570Z,16.30
2019-03-27T12:53:12.290Z,16.60
2019-03-27T12:55:38.945Z,16.60
2019-03-27T12:58:05.466Z,16.80
2019-03-27T13:00:32.121Z,16.60
2019-03-27T13:02:58.758Z,16.80
2019-03-27T13:05:25.406Z,17.10
2019-03-27T13:07:52.303Z,16.50
2019-03-27T13:10:18.815Z,17.30
2019-03-27T13:13:05.092Z,17.30
2019-03-27T13:15:31.599Z,17.70
2019-03-27T13:17:58.135Z,18.40
2019-03-27T13:20:24.807Z,19.90
2019-03-27T13:22:51.466Z,20.90
2019-03-27T13:25:18.079Z,21.70
2019-03-27T13:27:47.388Z,22.10
2019-03-27T13:30:13.091Z,23.90
2019-03-27T13:32:39.618Z,23.80
2019-03-27T13:35:06.261Z,23.90
2019-03-27T13:37:32.889Z,24.10
2019-03-27T13:40:00.136Z,24.90
2019-03-27T13:42:27.165Z,24.60
2019-03-27T13:44:53.665Z,24.20
2019-03-27T13:47:20.516Z,25.60
2019-03-27T13:49:47.152Z,25.40
2019-03-27T13:52:13.782Z,24.80
2019-03-27T13:54:40.430Z,25.30
2019-03-27T13:57:07.206Z,25.20
2019-03-27T13:59:33.741Z,24.60
2019-03-27T14:02:00.360Z,24.80
2019-03-27T14:04:27.146Z,25.00
2019-03-27T14:06:53.669Z,26.10
2019-03-27T14:09:20.651Z,25.70
2019-03-27T14:11:47.293Z,26.30
2019-03-27T14:14:13.822Z,26.50
2019-03-27T14:16:40.334Z,25.70
2019-03-27T14:19:06.991Z,25.60
2019-03-27T14:21:33.630Z,25.60
2019-03-27T14:24:00.241Z,24.70
2019-03-27T14:26:26.876Z,25.00
2019-03-27T14:28:53.490Z,24.90
2019-03-27T14:31:21.968Z,25.40
2019-03-27T14:33:48.501Z,25.20
2019-03-27T14:36:15.079Z,24.60
2019-03-27T14:38:41.605Z,24.50
2019-03-27T14:41:08.409Z,24.70
2019-03-27T14:43:35.050Z,25.70
2019-03-27T14:46:01.670Z,25.20
2019-03-27T14:48:28.440Z,25.00
2019-03-27T14:50:55.065Z,24.60
2019-03-27T14:53:21.678Z,25.00
2019-03-27T14:55:48.457Z,24.40
2019-03-27T14:58:15.127Z,24.30
2019-03-27T15:00:41.516Z,24.50
2019-03-27T15:03:08.182Z,24.70
2019-03-27T15:05:34.902Z,24.40
2019-03-27T15:08:04.086Z,24.50
2019-03-27T15:10:30.007Z,24.30
2019-03-27T15:12:56.522Z,24.30
2019-03-27T15:15:23.136Z,24.40
2019-03-27T15:17:49.777Z,24.70
2019-03-27T15:20:16.423Z,24.70
2019-03-27T15:22:43.047Z,24.50
2019-03-27T15:25:09.695Z,24.10
2019-03-27T15:27:36.285Z,24.00
2019-03-27T15:30:08.085Z,24.70
2019-03-27T15:32:35.013Z,24.60
2019-03-27T15:35:01.563Z,23.90
2019-03-27T15:37:28.173Z,23.70
2019-03-27T15:39:55.367Z,24.10
2019-03-27T15:42:22.039Z,24.10
2019-03-27T15:44:49.984Z,24.10
2019-03-27T15:47:17.990Z,24.50
2019-03-27T15:49:45.188Z,24.50
2019-03-27T15:52:11.800Z,24.40
2019-03-27T15:54:38.658Z,24.10
2019-03-27T15:57:05.328Z,24.00
2019-03-27T15:59:31.951Z,24.10
2019-03-27T16:01:58.572Z,23.90
2019-03-27T16:04:25.308Z,24.10
2019-03-27T16:06:51.925Z,23.90
2019-03-27T16:09:19.211Z,24.30
2019-03-27T16:11:45.844Z,24.00
2019-03-27T16:14:12.473Z,23.50
2019-03-27T16:16:39.106Z,23.60
2019-03-27T16:19:05.789Z,23.40
2019-03-27T16:21:32.300Z,23.60
2019-03-27T16:24:06.360Z,23.20
2019-03-27T16:26:27.448Z,22.90
2019-03-27T16:28:53.946Z,22.80
2019-03-27T16:31:20.643Z,22.60
2019-03-27T16:33:47.261Z,22.70
2019-03-27T16:36:13.906Z,22.80
2019-03-27T16:38:40.545Z,22.70
2019-03-27T16:41:07.296Z,22.70
2019-03-27T16:43:33.968Z,22.80
2019-03-27T16:46:00.709Z,22.60
2019-03-27T16:48:27.218Z,22.50
2019-03-27T16:50:53.838Z,22.70
2019-03-27T16:53:20.724Z,22.30
2019-03-27T16:55:47.370Z,21.90
2019-03-27T16:58:13.988Z,22.10
2019-03-27T17:00:40.919Z,22.20
2019-03-27T17:03:07.563Z,22.10
2019-03-27T17:05:34.083Z,22.00
2019-03-27T17:08:01.133Z,21.90
2019-03-27T17:10:27.746Z,22.00
2019-03-27T17:12:54.047Z,21.90
2019-03-27T17:15:20.569Z,21.90
2019-03-27T17:17:47.204Z,21.80
2019-03-27T17:20:13.817Z,21.90
2019-03-27T17:22:40.615Z,21.90
2019-03-27T17:25:07.177Z,21.50
2019-03-27T17:27:33.798Z,21.30
2019-03-27T17:30:00.378Z,21.40
2019-03-27T17:32:27.249Z,21.10
2019-03-27T17:34:53.868Z,20.90
2019-03-27T17:37:20.381Z,20.80
2019-03-27T17:39:47.003Z,20.80
2019-03-27T17:42:13.617Z,20.90
2019-03-27T17:44:40.641Z,20.80
2019-03-27T17:47:07.173Z,20.90
2019-03-27T17:49:33.710Z,20.90
2019-03-27T17:52:00.389Z,20.80
2019-03-27T17:54:27.012Z,20.70
2019-03-27T17:56:53.709Z,20.60
2019-03-27T17:59:20.454Z,20.40
2019-03-27T18:01:47.080Z,20.10
2019-03-27T18:04:13.494Z,20.00
2019-03-27T18:06:40.355Z,20.10
2019-03-27T18:09:06.998Z,20.10
2019-03-27T18:11:33.628Z,19.90
2019-03-27T18:14:00.311Z,19.50
2019-03-27T18:16:27.006Z,19.20
2019-03-27T18:18:53.655Z,19.10
2019-03-27T18:21:21.439Z,18.80
2019-03-27T18:23:48.127Z,18.90
2019-03-27T18:26:14.743Z,18.70
2019-03-27T18:31:21.510Z,17.60
2019-03-27T18:33:48.033Z,17.80
2019-03-27T18:36:14.563Z,17.70
2019-03-27T18:38:41.186Z,17.60
2019-03-27T18:41:07.799Z,17.50
2019-03-27T18:43:34.568Z,17.50
2019-03-27T18:46:01.281Z,17.10
2019-03-27T18:48:27.894Z,17.10
2019-03-27T18:50:54.843Z,16.90
2019-03-27T18:53:21.537Z,16.90
2019-03-27T18:55:48.149Z,16.80
2019-03-27T18:58:14.976Z,16.80
2019-03-27T19:00:41.446Z,16.60
2019-03-27T19:03:07.953Z,16.40
2019-03-27T19:05:34.659Z,16.20
2019-03-27T19:08:01.419Z,16.10
2019-03-27T19:10:28.042Z,15.30
2019-03-27T19:12:54.686Z,15.80
2019-03-27T19:15:21.325Z,15.70
2019-03-27T19:17:47.957Z,15.60
2019-03-27T19:20:14.648Z,15.50
2019-03-27T19:22:41.157Z,15.40
2019-03-27T19:25:07.765Z,15.30
2019-03-27T19:27:34.473Z,15.30
2019-03-27T19:30:01.114Z,15.20
2019-03-27T19:32:27.736Z,14.80
2019-03-27T19:34:54.280Z,14.80
2019-03-27T19:37:20.907Z,14.70
2019-03-27T19:39:48.032Z,14.80
2019-03-27T19:42:14.704Z,14.80
2019-03-27T19:44:41.227Z,14.70
2019-03-27T19:47:07.938Z,14.50
2019-03-27T19:49:34.918Z,14.30
2019-03-27T19:52:01.669Z,14.00
2019-03-27T19:54:28.203Z,14.00
2019-03-27T19:56:54.946Z,14.10
2019-03-27T19:59:21.598Z,14.20
2019-03-27T20:01:48.232Z,14.30
2019-03-27T20:04:14.887Z,14.00
2019-03-27T20:06:41.507Z,13.20
2019-03-27T20:09:08.150Z,13.80
2019-03-27T20:11:34.825Z,13.80
2019-03-27T20:14:01.781Z,13.60
2019-03-27T20:16:28.441Z,13.50
2019-03-27T20:18:55.298Z,13.40
2019-03-27T20:21:21.842Z,13.40
2019-03-27T20:23:48.546Z,13.40
2019-03-27T20:26:15.207Z,13.50
2019-03-27T20:28:41.725Z,13.60
2019-03-27T20:31:08.364Z,13.70
2019-03-27T20:33:38.006Z,14.00
2019-03-27T20:36:03.627Z,14.20
2019-03-27T20:38:30.265Z,14.40
2019-03-27T20:40:57.251Z,14.60
2019-03-27T20:43:23.866Z,14.70
2019-03-27T20:45:50.495Z,14.60
2019-03-27T20:48:17.479Z,14.60
2019-03-27T20:50:43.914Z,13.70
2019-03-27T20:53:10.425Z,14.30
2019-03-27T20:55:37.095Z,13.90
2019-03-27T20:58:03.715Z,13.70
2019-03-27T21:00:30.255Z,13.50
2019-03-27T21:02:57.132Z,13.30
2019-03-27T21:05:23.766Z,13.00
2019-03-27T21:07:50.276Z,12.80
2019-03-27T21:10:17.496Z,12.70
2019-03-27T21:12:44.129Z,12.70
2019-03-27T21:15:10.651Z,12.70
2019-03-27T21:17:37.641Z,12.70
2019-03-27T21:20:04.971Z,12.70
2019-03-27T21:22:31.578Z,12.80
2019-03-27T21:25:08.060Z,13.00
2019-03-27T21:27:26.616Z,13.10
2019-03-27T21:29:53.350Z,13.30
2019-03-27T21:32:19.999Z,13.40
2019-03-27T21:34:46.818Z,13.50
2019-03-27T21:37:13.439Z,13.40
2019-03-27T21:39:40.125Z,13.40
2019-03-27T21:42:06.764Z,13.30
2019-03-27T21:44:33.394Z,13.10
2019-03-27T21:47:00.051Z,12.40
2019-03-27T21:49:26.905Z,12.70
2019-03-27T21:51:53.553Z,12.30
2019-03-27T21:54:20.083Z,12.10
2019-03-27T21:56:46.702Z,12.10
2019-03-27T21:59:13.329Z,12.30
2019-03-27T22:01:40.010Z,12.50
2019-03-27T22:04:06.629Z,12.60
2019-03-27T22:06:33.599Z,12.70
2019-03-27T22:09:00.292Z,12.30
2019-03-27T22:11:26.919Z,11.80
2019-03-27T22:13:53.949Z,11.50
2019-03-27T22:16:20.577Z,11.10
2019-03-27T22:18:47.178Z,10.80
2019-03-27T22:21:13.753Z,10.90
2019-03-27T22:23:40.334Z,11.00
2019-03-27T22:26:06.953Z,11.10
2019-03-27T22:28:33.584Z,11.00
2019-03-27T22:31:00.781Z,10.90
2019-03-27T22:33:27.391Z,10.80
2019-03-27T22:35:54.227Z,10.70
2019-03-27T22:38:20.882Z,10.60
2019-03-27T22:40:47.397Z,10.60
2019-03-27T22:43:14.024Z,10.60
2019-03-27T22:45:40.994Z,10.50
2019-03-27T22:48:07.513Z,10.60
2019-03-27T22:50:34.426Z,10.30
2019-03-27T22:53:01.238Z,10.50
2019-03-27T22:55:27.896Z,10.30
2019-03-27T22:57:54.383Z,9.80
2019-03-27T23:00:22.867Z,10.30
2019-03-27T23:02:49.508Z,10.30
2019-03-27T23:05:16.023Z,10.60
2019-03-27T23:07:42.552Z,10.60
2019-03-27T23:10:09.386Z,10.60
2019-03-27T23:12:36.190Z,10.50
2019-03-27T23:15:06.172Z,9.80
2019-03-27T23:17:32.694Z,10.30
2019-03-27T23:19:59.229Z,10.30
2019-03-27T23:22:25.993Z,10.30
2019-03-27T23:24:52.853Z,10.40
2019-03-27T23:27:19.473Z,10.50
2019-03-27T23:29:45.898Z,10.40
2019-03-27T23:32:12.368Z,10.00
2019-03-27T23:34:38.925Z,10.40
2019-03-27T23:37:05.670Z,10.30
2019-03-27T23:39:32.186Z,10.20
2019-03-27T23:41:58.758Z,10.10
2019-03-27T23:44:25.176Z,10.00
2019-03-27T23:46:51.806Z,9.90
2019-03-27T23:49:18.445Z,10.00
2019-03-27T23:51:45.029Z,9.90
2019-03-27T23:54:11.642Z,10.00
2019-03-27T23:56:38.270Z,10.10
2019-03-27T23:59:04.689Z,10.20
